Time;durP1;ratioP1;P1;durP2;ratioP2;P2;SDS_P1;SDS_P2;PMS_P1;PMS_P2;Temp;Humidity;BMP_temperature;BMP_pressure;BME280_temperature;BME280_humidity;BME280_pressure;Samples;Min_cycle;Max_cycle;Signal;HPM_P1;HPM_P2
2021/09/26 00:00:25;;;;;;;24.15;18.33;;;;;;;;;;5007143;28;20160;-82
2021/09/26 00:02:51;;;;;;;27.35;20.27;;;;;;;;;;4995483;28;20144;-82
2021/09/26 00:05:21;;;;;;;29.80;19.25;;;;;;;;;;4995762;28;20127;-82
2021/09/26 00:07:48;;;;;;;28.90;19.60;;;;;;;;;;5005050;28;20045;-82
2021/09/26 00:10:15;;;;;;;30.80;18.63;;;;;;;;;;4991887;28;20119;-83
2021/09/26 00:12:42;;;;;;;27.67;18.42;;;;;;;;;;4999944;28;20129;-82
2021/09/26 00:15:12;;;;;;;28.38;19.13;;;;;;;;;;5000433;28;20078;-82
2021/09/26 00:17:40;;;;;;;30.05;19.25;;;;;;;;;;4997034;28;20431;-82
2021/09/26 00:20:08;;;;;;;24.75;18.13;;;;;;;;;;5011673;28;20081;-82
2021/09/26 00:22:35;;;;;;;26.20;18.65;;;;;;;;;;5010937;28;20057;-82
2021/09/26 00:25:03;;;;;;;26.85;18.00;;;;;;;;;;5011383;28;20046;-82
2021/09/26 00:27:29;;;;;;;24.23;18.13;;;;;;;;;;5010940;28;20092;-82
2021/09/26 00:30:00;;;;;;;24.13;16.95;;;;;;;;;;5010730;28;20061;-82
2021/09/26 00:32:26;;;;;;;27.10;18.02;;;;;;;;;;5010660;28;20056;-82
2021/09/26 00:34:53;;;;;;;28.52;18.38;;;;;;;;;;5010596;28;20056;-82
2021/09/26 00:37:20;;;;;;;26.50;18.52;;;;;;;;;;5009931;28;20046;-82
2021/09/26 00:39:47;;;;;;;25.48;18.25;;;;;;;;;;5011380;28;20088;-82
2021/09/26 00:42:13;;;;;;;22.75;18.63;;;;;;;;;;5010573;28;20057;-82
2021/09/26 00:44:43;;;;;;;31.00;19.63;;;;;;;;;;5011585;28;20193;-82
2021/09/26 00:47:16;;;;;;;24.33;18.13;;;;;;;;;;5012125;28;20052;-82
2021/09/26 00:49:42;;;;;;;25.65;18.98;;;;;;;;;;5018491;28;20064;-82
2021/09/26 00:52:12;;;;;;;22.52;18.13;;;;;;;;;;5021388;28;20073;-82
2021/09/26 00:54:41;;;;;;;29.60;19.90;;;;;;;;;;5013563;28;20116;-82
2021/09/26 00:57:08;;;;;;;30.88;18.63;;;;;;;;;;5013974;28;20046;-83
2021/09/26 00:59:35;;;;;;;26.83;19.20;;;;;;;;;;5023748;28;20068;-82
2021/09/26 01:02:05;;;;;;;29.17;20.02;;;;;;;;;;5025863;28;20053;-82
2021/09/26 01:04:32;;;;;;;24.83;19.10;;;;;;;;;;5033498;28;20108;-82
2021/09/26 01:07:10;;;;;;;26.75;20.23;;;;;;;;;;5033982;28;20051;-82
2021/09/26 01:09:52;;;;;;;30.25;20.00;;;;;;;;;;5017781;28;20182;-82
2021/09/26 01:12:19;;;;;;;26.13;19.13;;;;;;;;;;5015969;28;20056;-82
2021/09/26 01:14:54;;;;;;;26.80;20.13;;;;;;;;;;5015750;28;20363;-82
2021/09/26 01:17:28;;;;;;;27.95;19.88;;;;;;;;;;5015293;28;20061;-82
2021/09/26 01:20:20;;;;;;;27.85;20.02;;;;;;;;;;5014978;28;20045;-82
2021/09/26 01:23:02;;;;;;;26.08;18.75;;;;;;;;;;5016904;28;20412;-82
2021/09/26 01:25:39;;;;;;;32.50;20.10;;;;;;;;;;5016339;28;20045;-82
2021/09/26 01:28:09;;;;;;;24.77;19.17;;;;;;;;;;5020652;28;20431;-82
2021/09/26 01:30:57;;;;;;;27.63;19.60;;;;;;;;;;5030666;28;20300;-82
2021/09/26 01:33:25;;;;;;;26.23;19.27;;;;;;;;;;5032331;28;20092;-82
2021/09/26 01:36:00;;;;;;;28.90;20.75;;;;;;;;;;5032010;28;20211;-82
2021/09/26 01:38:32;;;;;;;25.67;19.67;;;;;;;;;;5035253;28;20053;-82
2021/09/26 01:41:04;;;;;;;30.52;20.08;;;;;;;;;;5035285;28;20053;-82
2021/09/26 01:43:40;;;;;;;27.25;19.77;;;;;;;;;;5034844;28;20045;-82
2021/09/26 01:46:08;;;;;;;27.13;19.35;;;;;;;;;;5033331;28;20053;-82
2021/09/26 01:48:38;;;;;;;26.30;21.00;;;;;;;;;;5034861;28;20123;-82
2021/09/26 01:51:05;;;;;;;27.00;18.45;;;;;;;;;;5035437;28;20053;-82
2021/09/26 01:53:36;;;;;;;27.52;18.30;;;;;;;;;;5035796;28;20057;-84
2021/09/26 01:56:04;;;;;;;25.70;18.95;;;;;;;;;;5035597;28;20287;-81
2021/09/26 01:58:33;;;;;;;29.70;20.10;;;;;;;;;;5034490;28;20080;-82
2021/09/26 02:01:03;;;;;;;29.67;21.08;;;;;;;;;;5037068;28;20425;-83
2021/09/26 02:03:31;;;;;;;28.70;20.83;;;;;;;;;;5033263;28;20462;-82
2021/09/26 02:05:58;;;;;;;28.23;21.02;;;;;;;;;;5045670;28;20258;-82
2021/09/26 02:08:26;;;;;;;30.45;21.45;;;;;;;;;;5050383;28;20052;-82
2021/09/26 02:10:54;;;;;;;29.00;21.45;;;;;;;;;;5045756;28;20045;-82
2021/09/26 02:13:23;;;;;;;31.83;22.63;;;;;;;;;;5037007;28;20084;-83
2021/09/26 02:15:50;;;;;;;28.33;20.98;;;;;;;;;;5036612;28;20077;-83
2021/09/26 02:18:17;;;;;;;27.02;20.38;;;;;;;;;;5035110;28;20139;-82
2021/09/26 02:20:50;;;;;;;29.83;19.67;;;;;;;;;;5035566;28;20045;-82
2021/09/26 02:23:19;;;;;;;28.27;18.67;;;;;;;;;;5035707;28;20060;-83
2021/09/26 02:25:47;;;;;;;27.10;20.42;;;;;;;;;;5034945;28;20064;-83
2021/09/26 02:28:15;;;;;;;30.30;20.05;;;;;;;;;;5036328;28;20059;-83
2021/09/26 02:30:41;;;;;;;28.52;19.92;;;;;;;;;;5038313;28;20049;-83
2021/09/26 02:33:08;;;;;;;26.95;20.23;;;;;;;;;;5048918;28;20073;-82
2021/09/26 02:35:35;;;;;;;30.58;21.00;;;;;;;;;;5046867;28;20487;-83
2021/09/26 02:38:02;;;;;;;29.42;21.02;;;;;;;;;;5036438;28;20053;-83
2021/09/26 02:40:28;;;;;;;26.90;20.08;;;;;;;;;;5047375;28;20064;-83
2021/09/26 02:43:14;;;;;;;25.08;20.25;;;;;;;;;;5055669;28;20080;-83
2021/09/26 02:45:44;;;;;;;28.60;22.37;;;;;;;;;;5045882;28;20085;-83
2021/09/26 02:48:10;;;;;;;28.02;21.02;;;;;;;;;;5037130;28;20096;-83
2021/09/26 02:50:38;;;;;;;25.08;20.10;;;;;;;;;;5036059;28;20060;-83
2021/09/26 02:53:07;;;;;;;28.15;20.80;;;;;;;;;;5035946;28;20381;-83
2021/09/26 02:55:37;;;;;;;29.08;20.77;;;;;;;;;;5034425;28;20072;-83
2021/09/26 02:58:04;;;;;;;31.08;21.67;;;;;;;;;;5036410;28;20069;-83
2021/09/26 03:00:35;;;;;;;32.13;20.85;;;;;;;;;;5037360;28;20059;-83
2021/09/26 03:03:13;;;;;;;24.02;18.13;;;;;;;;;;5033469;28;20437;-83
2021/09/26 03:05:45;;;;;;;26.52;19.23;;;;;;;;;;5035478;28;20053;-83
2021/09/26 03:08:12;;;;;;;26.50;18.73;;;;;;;;;;5034440;28;20113;-83
2021/09/26 03:10:39;;;;;;;26.20;18.42;;;;;;;;;;5036778;28;20071;-83
2021/09/26 03:13:09;;;;;;;23.65;18.08;;;;;;;;;;5033826;28;20167;-82
2021/09/26 03:15:36;;;;;;;22.13;18.00;;;;;;;;;;5035848;28;20072;-82
2021/09/26 03:18:03;;;;;;;29.77;18.48;;;;;;;;;;5052595;28;20456;-82
2021/09/26 03:20:30;;;;;;;26.17;17.50;;;;;;;;;;5051859;28;20049;-82
2021/09/26 03:23:00;;;;;;;20.85;16.33;;;;;;;;;;5059386;28;20463;-82
2021/09/26 03:25:26;;;;;;;21.75;18.73;;;;;;;;;;5059597;28;20053;-83
2021/09/26 03:27:53;;;;;;;24.00;17.58;;;;;;;;;;5053039;28;20047;-83
2021/09/26 03:30:22;;;;;;;22.42;16.63;;;;;;;;;;5054710;28;20402;-83
2021/09/26 03:32:52;;;;;;;23.60;17.00;;;;;;;;;;5054516;28;20055;-82
2021/09/26 03:35:19;;;;;;;22.83;17.92;;;;;;;;;;5053117;28;20064;-83
2021/09/26 03:37:46;;;;;;;24.05;16.63;;;;;;;;;;5054379;28;20053;-83
2021/09/26 03:40:13;;;;;;;22.50;16.33;;;;;;;;;;5054429;28;20443;-83
2021/09/26 03:42:40;;;;;;;21.00;16.52;;;;;;;;;;5055158;28;20053;-83
2021/09/26 03:45:07;;;;;;;22.92;15.50;;;;;;;;;;5054815;28;20063;-83
2021/09/26 03:47:35;;;;;;;18.50;13.98;;;;;;;;;;5055799;28;20048;-82
2021/09/26 03:50:01;;;;;;;23.30;15.77;;;;;;;;;;5057130;28;20417;-82
2021/09/26 03:52:28;;;;;;;19.10;15.27;;;;;;;;;;5060006;28;20112;-82
2021/09/26 03:54:55;;;;;;;18.20;14.18;;;;;;;;;;5063967;28;20056;-82
2021/09/26 03:57:21;;;;;;;18.90;15.07;;;;;;;;;;5063189;28;20091;-82
2021/09/26 03:59:48;;;;;;;20.40;13.23;;;;;;;;;;5055036;28;20564;-82
2021/09/26 04:02:15;;;;;;;18.23;13.60;;;;;;;;;;5055776;28;20057;-82
2021/09/26 04:04:42;;;;;;;18.65;13.32;;;;;;;;;;5054387;28;20049;-82
2021/09/26 04:07:09;;;;;;;18.23;13.77;;;;;;;;;;5054851;28;20061;-82
2021/09/26 04:09:36;;;;;;;17.17;13.45;;;;;;;;;;5054988;28;20045;-82
2021/09/26 04:12:03;;;;;;;19.83;14.80;;;;;;;;;;5055599;28;20114;-82
2021/09/26 04:14:31;;;;;;;18.48;13.48;;;;;;;;;;5054797;28;20405;-82
2021/09/26 04:16:58;;;;;;;17.30;13.50;;;;;;;;;;5054530;28;20357;-83
2021/09/26 04:19:24;;;;;;;21.25;14.95;;;;;;;;;;5053454;28;20072;-83
2021/09/26 04:21:51;;;;;;;16.75;12.82;;;;;;;;;;5052727;28;20429;-82
2021/09/26 04:24:18;;;;;;;17.33;13.30;;;;;;;;;;5054892;28;20041;-82
2021/09/26 04:26:45;;;;;;;15.68;12.02;;;;;;;;;;5053604;28;20136;-82
2021/09/26 04:29:12;;;;;;;17.15;12.60;;;;;;;;;;5052723;28;20106;-82
2021/09/26 04:31:42;;;;;;;20.05;12.60;;;;;;;;;;5055491;28;20063;-82
2021/09/26 04:34:09;;;;;;;17.45;11.93;;;;;;;;;;5055368;28;20049;-82
2021/09/26 04:36:36;;;;;;;14.88;10.85;;;;;;;;;;5060581;28;20051;-82
2021/09/26 04:39:04;;;;;;;17.77;11.40;;;;;;;;;;5070674;28;20056;-82
2021/09/26 04:41:30;;;;;;;16.08;12.23;;;;;;;;;;5067498;28;20072;-82
2021/09/26 04:44:00;;;;;;;17.48;12.05;;;;;;;;;;5058235;28;20080;-82
2021/09/26 04:46:27;;;;;;;16.55;11.52;;;;;;;;;;5057499;28;20054;-82
2021/09/26 04:48:54;;;;;;;15.35;12.38;;;;;;;;;;5055858;28;20112;-82
2021/09/26 04:51:21;;;;;;;16.63;11.15;;;;;;;;;;5055969;28;20056;-82
2021/09/26 04:53:47;;;;;;;16.80;11.13;;;;;;;;;;5054429;28;20040;-81
2021/09/26 04:56:14;;;;;;;15.23;11.15;;;;;;;;;;5041356;28;20205;-82
2021/09/26 04:58:41;;;;;;;16.52;11.70;;;;;;;;;;5034353;28;20045;-82
2021/09/26 05:01:08;;;;;;;14.52;9.95;;;;;;;;;;5034602;28;20328;-82
2021/09/26 05:03:34;;;;;;;18.67;11.68;;;;;;;;;;5034562;28;20219;-83
2021/09/26 05:06:01;;;;;;;15.35;11.00;;;;;;;;;;5035080;28;20508;-81
2021/09/26 05:08:29;;;;;;;17.73;11.20;;;;;;;;;;5035045;28;20049;-82
2021/09/26 05:10:57;;;;;;;16.25;10.50;;;;;;;;;;5033312;28;20113;-82
2021/09/26 05:13:24;;;;;;;14.60;10.32;;;;;;;;;;5048849;28;20041;-82
2021/09/26 05:15:51;;;;;;;14.95;9.95;;;;;;;;;;5057625;28;20037;-81
2021/09/26 05:18:18;;;;;;;16.90;10.68;;;;;;;;;;5060204;28;20084;-82
2021/09/26 05:20:52;;;;;;;18.02;10.45;;;;;;;;;;5053869;28;20053;-82
2021/09/26 05:23:22;;;;;;;18.05;10.20;;;;;;;;;;5059114;28;20029;-82
2021/09/26 05:25:49;;;;;;;15.15;10.70;;;;;;;;;;5071175;28;20102;-82
2021/09/26 05:28:25;;;;;;;17.70;10.80;;;;;;;;;;5041419;28;20067;-82
2021/09/26 05:30:52;;;;;;;17.95;11.52;;;;;;;;;;5033824;28;20128;-82
2021/09/26 05:33:23;;;;;;;14.88;10.68;;;;;;;;;;5034818;28;20049;-82
2021/09/26 05:35:55;;;;;;;16.90;11.88;;;;;;;;;;5037096;28;20132;-82
2021/09/26 05:38:25;;;;;;;18.42;10.82;;;;;;;;;;5037142;28;20053;-81
2021/09/26 05:40:53;;;;;;;14.45;11.48;;;;;;;;;;5045590;28;20065;-82
2021/09/26 05:43:20;;;;;;;18.15;11.18;;;;;;;;;;5050290;28;20143;-82
2021/09/26 05:45:49;;;;;;;17.05;10.15;;;;;;;;;;5038105;28;20046;-82
2021/09/26 05:48:16;;;;;;;15.63;9.25;;;;;;;;;;5038222;28;20104;-82
2021/09/26 05:50:43;;;;;;;16.25;10.02;;;;;;;;;;5038688;28;20050;-83
2021/09/26 05:53:14;;;;;;;19.38;9.50;;;;;;;;;;5035784;28;20061;-82
2021/09/26 05:55:41;;;;;;;14.02;8.98;;;;;;;;;;5049021;28;20057;-83
2021/09/26 05:58:08;;;;;;;14.63;9.18;;;;;;;;;;5049627;28;20049;-83
2021/09/26 06:00:38;;;;;;;18.10;9.70;;;;;;;;;;5038773;28;20056;-83
2021/09/26 06:03:05;;;;;;;13.00;8.50;;;;;;;;;;5045672;28;20048;-82
2021/09/26 06:05:33;;;;;;;13.27;8.48;;;;;;;;;;5058255;28;20049;-83
2021/09/26 06:07:59;;;;;;;13.63;9.02;;;;;;;;;;5066258;28;20480;-83
2021/09/26 06:10:28;;;;;;;14.68;8.63;;;;;;;;;;5058576;28;20045;-82
2021/09/26 06:13:05;;;;;;;13.80;9.13;;;;;;;;;;5057328;28;20057;-82
2021/09/26 06:15:34;;;;;;;10.77;7.55;;;;;;;;;;5056490;28;20045;-82
2021/09/26 06:18:07;;;;;;;10.43;7.40;;;;;;;;;;5055254;28;20067;-83
2021/09/26 06:20:37;;;;;;;14.82;8.65;;;;;;;;;;5056176;28;20183;-83
2021/09/26 06:23:06;;;;;;;11.88;8.27;;;;;;;;;;5057411;28;20072;-83
2021/09/26 06:25:33;;;;;;;12.50;8.07;;;;;;;;;;5057805;28;20056;-83
2021/09/26 06:28:04;;;;;;;12.55;7.47;;;;;;;;;;5041758;28;20053;-82
2021/09/26 06:30:36;;;;;;;9.75;7.57;;;;;;;;;;5035832;28;20095;-82
2021/09/26 06:33:03;;;;;;;12.85;7.35;;;;;;;;;;5036741;28;20041;-83
2021/09/26 06:35:31;;;;;;;9.75;6.88;;;;;;;;;;5036017;28;20053;-83
2021/09/26 06:38:00;;;;;;;9.77;6.43;;;;;;;;;;5035575;28;20064;-83
2021/09/26 06:40:27;;;;;;;8.65;6.53;;;;;;;;;;5036624;28;20426;-83
2021/09/26 06:42:54;;;;;;;10.38;6.38;;;;;;;;;;5033388;28;20049;-83
2021/09/26 06:45:24;;;;;;;12.77;6.75;;;;;;;;;;5035189;28;20049;-82
2021/09/26 06:47:51;;;;;;;12.10;7.10;;;;;;;;;;5035986;28;20053;-81
2021/09/26 06:50:21;;;;;;;11.43;6.93;;;;;;;;;;5035072;28;20056;-82
2021/09/26 06:52:48;;;;;;;12.07;6.70;;;;;;;;;;5034717;28;20073;-82
2021/09/26 06:55:15;;;;;;;13.38;6.28;;;;;;;;;;5034441;28;20320;-82
2021/09/26 06:57:42;;;;;;;9.88;6.30;;;;;;;;;;5034929;28;20147;-83
2021/09/26 07:00:10;;;;;;;11.65;6.47;;;;;;;;;;5034773;28;20049;-82
2021/09/26 07:02:36;;;;;;;8.23;6.03;;;;;;;;;;5034996;28;20433;-83
2021/09/26 07:05:04;;;;;;;9.73;6.15;;;;;;;;;;5038253;28;20169;-81
2021/09/26 07:07:30;;;;;;;9.35;6.35;;;;;;;;;;5034059;28;20072;-82
2021/09/26 07:09:57;;;;;;;8.82;5.53;;;;;;;;;;5034391;28;20110;-82
2021/09/26 07:12:24;;;;;;;10.27;5.13;;;;;;;;;;5030550;28;20059;-83
2021/09/26 07:14:52;;;;;;;8.57;4.60;;;;;;;;;;5031899;28;20063;-82
2021/09/26 07:17:20;;;;;;;16.85;5.50;;;;;;;;;;5036827;28;20194;-82
2021/09/26 07:19:48;;;;;;;7.30;4.80;;;;;;;;;;5034616;28;20081;-82
2021/09/26 07:22:19;;;;;;;9.10;4.75;;;;;;;;;;5039804;28;20072;-82
2021/09/26 07:24:46;;;;;;;9.73;4.95;;;;;;;;;;5029470;28;20046;-83
2021/09/26 07:27:19;;;;;;;8.27;4.78;;;;;;;;;;5043534;28;20100;-81
2021/09/26 07:29:46;;;;;;;8.60;5.38;;;;;;;;;;5028984;28;20228;-82
2021/09/26 07:32:14;;;;;;;7.28;4.72;;;;;;;;;;5028433;28;20053;-82
2021/09/26 07:34:48;;;;;;;8.60;4.80;;;;;;;;;;5050687;28;20080;-82
2021/09/26 07:37:15;;;;;;;7.95;4.97;;;;;;;;;;5054089;28;20188;-83
2021/09/26 07:39:42;;;;;;;10.52;4.95;;;;;;;;;;5034702;28;20055;-83
2021/09/26 07:42:09;;;;;;;5.50;4.22;;;;;;;;;;5030628;28;20053;-83
2021/09/26 07:44:36;;;;;;;6.00;4.65;;;;;;;;;;5030326;28;20291;-82
2021/09/26 07:47:03;;;;;;;7.13;4.55;;;;;;;;;;5031279;28;20165;-83
2021/09/26 07:49:30;;;;;;;10.43;4.32;;;;;;;;;;5029957;28;20057;-81
2021/09/26 07:51:57;;;;;;;5.13;3.72;;;;;;;;;;5030533;28;20053;-82
2021/09/26 07:54:32;;;;;;;9.15;4.35;;;;;;;;;;5030736;28;20440;-83
2021/09/26 07:57:00;;;;;;;5.90;3.50;;;;;;;;;;5030544;28;20380;-83
2021/09/26 07:59:27;;;;;;;9.18;4.03;;;;;;;;;;5029762;28;20088;-82
2021/09/26 08:01:54;;;;;;;9.13;4.30;;;;;;;;;;5029063;28;20067;-82
2021/09/26 08:04:21;;;;;;;6.50;4.15;;;;;;;;;;5031010;28;20053;-82
2021/09/26 08:06:48;;;;;;;6.15;4.45;;;;;;;;;;5029077;28;20060;-82
2021/09/26 08:09:15;;;;;;;9.10;4.18;;;;;;;;;;5025777;28;20144;-82
2021/09/26 08:11:41;;;;;;;6.35;4.13;;;;;;;;;;5026353;28;20403;-82
2021/09/26 08:14:08;;;;;;;5.95;4.55;;;;;;;;;;5024630;28;20067;-82
2021/09/26 08:16:35;;;;;;;8.00;4.60;;;;;;;;;;5027258;28;20608;-82
2021/09/26 08:19:02;;;;;;;5.20;3.90;;;;;;;;;;5034406;28;20068;-83
2021/09/26 08:21:31;;;;;;;6.30;3.88;;;;;;;;;;5057181;28;20104;-83
2021/09/26 08:23:57;;;;;;;5.53;3.72;;;;;;;;;;5044390;28;20053;-82
2021/09/26 08:26:24;;;;;;;12.52;4.10;;;;;;;;;;5029496;28;20255;-83
2021/09/26 08:28:51;;;;;;;7.18;3.88;;;;;;;;;;5029036;28;20216;-83
2021/09/26 08:31:18;;;;;;;6.20;4.25;;;;;;;;;;5030443;28;20060;-82
2021/09/26 08:33:45;;;;;;;5.18;4.07;;;;;;;;;;5040696;28;20101;-82
2021/09/26 08:36:11;;;;;;;10.52;4.15;;;;;;;;;;5033053;28;20376;-82
2021/09/26 08:38:38;;;;;;;6.45;4.70;;;;;;;;;;5028313;28;20061;-82
2021/09/26 08:41:05;;;;;;;8.75;4.57;;;;;;;;;;5029645;28;20055;-83
2021/09/26 08:43:32;;;;;;;5.53;3.90;;;;;;;;;;5032629;28;20113;-83
2021/09/26 08:46:00;;;;;;;8.98;4.20;;;;;;;;;;5037348;28;20041;-82
2021/09/26 08:48:30;;;;;;;8.80;4.75;;;;;;;;;;5039120;28;20401;-82
2021/09/26 08:50:56;;;;;;;5.25;4.10;;;;;;;;;;5025935;28;20609;-82
2021/09/26 08:53:25;;;;;;;5.85;4.10;;;;;;;;;;5026611;28;20240;-82
2021/09/26 08:55:53;;;;;;;4.07;3.63;;;;;;;;;;5023898;28;20281;-83
2021/09/26 08:58:23;;;;;;;6.50;3.67;;;;;;;;;;5022552;28;20378;-83
2021/09/26 09:00:50;;;;;;;7.32;3.10;;;;;;;;;;5022463;28;20248;-83
2021/09/26 09:03:17;;;;;;;5.32;3.50;;;;;;;;;;5025122;28;20421;-83
2021/09/26 09:05:44;;;;;;;6.63;3.92;;;;;;;;;;5023386;28;20049;-82
2021/09/26 09:08:18;;;;;;;5.07;3.60;;;;;;;;;;5023407;28;20045;-82
2021/09/26 09:10:50;;;;;;;7.78;3.58;;;;;;;;;;5025041;28;20320;-81
2021/09/26 09:13:18;;;;;;;5.15;3.13;;;;;;;;;;5028324;28;20056;-83
2021/09/26 09:15:56;;;;;;;6.60;3.30;;;;;;;;;;5026408;28;20138;-82
2021/09/26 09:18:23;;;;;;;6.45;3.65;;;;;;;;;;5022200;28;20342;-82
2021/09/26 09:20:51;;;;;;;6.55;3.78;;;;;;;;;;5025646;28;20116;-83
2021/09/26 09:23:19;;;;;;;8.90;4.90;;;;;;;;;;5027617;28;20045;-82
2021/09/26 09:25:49;;;;;;;6.38;3.78;;;;;;;;;;5027320;28;20132;-82
2021/09/26 09:28:26;;;;;;;5.15;3.75;;;;;;;;;;5029090;28;20045;-82
2021/09/26 09:31:03;;;;;;;8.30;4.05;;;;;;;;;;5023712;28;20432;-82
2021/09/26 09:33:36;;;;;;;7.03;4.28;;;;;;;;;;5020533;28;20207;-82
2021/09/26 09:36:03;;;;;;;5.82;4.35;;;;;;;;;;5026332;28;20397;-82
2021/09/26 09:38:32;;;;;;;5.78;4.15;;;;;;;;;;5025369;28;20348;-82
2021/09/26 09:41:00;;;;;;;8.80;4.82;;;;;;;;;;5024500;28;20050;-82
2021/09/26 09:43:29;;;;;;;10.68;4.43;;;;;;;;;;5025291;28;20045;-82
2021/09/26 09:45:57;;;;;;;6.22;4.45;;;;;;;;;;5025765;28;20108;-82
2021/09/26 09:48:30;;;;;;;8.70;4.35;;;;;;;;;;5031619;28;20064;-82
2021/09/26 09:51:02;;;;;;;13.30;5.22;;;;;;;;;;5030053;28;20071;-82
2021/09/26 09:53:49;;;;;;;7.28;3.92;;;;;;;;;;5025755;28;20140;-82
2021/09/26 09:56:25;;;;;;;5.13;4.03;;;;;;;;;;5027330;28;20475;-82
2021/09/26 09:58:57;;;;;;;7.32;3.92;;;;;;;;;;5026816;28;20268;-82
2021/09/26 10:01:32;;;;;;;9.30;4.47;;;;;;;;;;5024492;28;20425;-82
2021/09/26 10:04:02;;;;;;;6.00;3.75;;;;;;;;;;5019109;28;20061;-82
2021/09/26 10:06:41;;;;;;;8.35;4.43;;;;;;;;;;5022777;28;20127;-82
2021/09/26 10:09:28;;;;;;;9.07;4.30;;;;;;;;;;5024079;28;20054;-82
2021/09/26 10:11:55;;;;;;;8.13;4.53;;;;;;;;;;5025252;28;20424;-82
2021/09/26 10:14:24;;;;;;;7.25;4.63;;;;;;;;;;5018404;28;20042;-82
2021/09/26 10:16:51;;;;;;;8.75;4.68;;;;;;;;;;5012723;28;20049;-81
2021/09/26 10:19:22;;;;;;;6.55;3.67;;;;;;;;;;5011519;28;20146;-81
2021/09/26 10:21:50;;;;;;;9.20;4.25;;;;;;;;;;5041668;28;20049;-81
2021/09/26 10:24:21;;;;;;;6.00;3.78;;;;;;;;;;5023404;28;20448;-82
2021/09/26 10:26:48;;;;;;;7.10;3.92;;;;;;;;;;5020286;28;20288;-82
2021/09/26 10:29:17;;;;;;;10.45;4.70;;;;;;;;;;5013411;28;20343;-81
2021/09/26 10:31:48;;;;;;;7.68;5.10;;;;;;;;;;5002962;28;20494;-81
2021/09/26 10:34:15;;;;;;;5.50;4.60;;;;;;;;;;5004332;28;20396;-81
2021/09/26 10:36:43;;;;;;;6.90;4.57;;;;;;;;;;5024779;28;20369;-82
2021/09/26 10:39:11;;;;;;;8.90;4.28;;;;;;;;;;5025782;28;20206;-82
2021/09/26 10:41:57;;;;;;;8.40;4.60;;;;;;;;;;5024236;28;20487;-82
2021/09/26 10:44:27;;;;;;;7.50;4.93;;;;;;;;;;5012816;28;20060;-82
2021/09/26 10:47:16;;;;;;;15.60;4.25;;;;;;;;;;5033643;28;20132;-82
2021/09/26 10:49:51;;;;;;;5.93;4.10;;;;;;;;;;5025727;28;20409;-83
2021/09/26 10:52:33;;;;;;;5.90;4.63;;;;;;;;;;5026460;28;20397;-82
2021/09/26 10:55:24;;;;;;;5.88;4.10;;;;;;;;;;5023638;28;20344;-83
2021/09/26 10:57:59;;;;;;;4.75;3.78;;;;;;;;;;5011789;28;20061;-82
2021/09/26 11:00:29;;;;;;;6.07;3.75;;;;;;;;;;5024718;28;20229;-82
2021/09/26 11:03:11;;;;;;;6.47;4.30;;;;;;;;;;5024199;28;20049;-83
2021/09/26 11:05:54;;;;;;;9.75;4.32;;;;;;;;;;5024921;28;20059;-82
2021/09/26 11:08:24;;;;;;;5.93;3.88;;;;;;;;;;5018462;28;20395;-82
2021/09/26 11:10:58;;;;;;;5.10;4.28;;;;;;;;;;5015309;28;20042;-82
2021/09/26 11:13:27;;;;;;;5.70;3.38;;;;;;;;;;5015355;28;20548;-82
2021/09/26 11:16:22;;;;;;;9.50;3.92;;;;;;;;;;5024580;28;20057;-83
2021/09/26 11:18:58;;;;;;;5.25;3.55;;;;;;;;;;5019244;28;20066;-83
2021/09/26 11:21:41;;;;;;;7.28;3.67;;;;;;;;;;5036084;28;20405;-83
2021/09/26 11:24:10;;;;;;;9.65;3.95;;;;;;;;;;5021433;28;20471;-83
2021/09/26 11:27:03;;;;;;;11.63;4.28;;;;;;;;;;5031634;28;20052;-83
2021/09/26 11:29:39;;;;;;;7.47;3.97;;;;;;;;;;5041601;28;20495;-83
2021/09/26 11:32:07;;;;;;;8.15;4.65;;;;;;;;;;5021973;28;20364;-83
2021/09/26 11:34:39;;;;;;;9.35;4.75;;;;;;;;;;5026067;28;20045;-83
2021/09/26 11:37:06;;;;;;;10.07;4.82;;;;;;;;;;5026672;28;20064;-83
2021/09/26 11:39:34;;;;;;;6.82;4.78;;;;;;;;;;5049837;28;20084;-83
2021/09/26 11:42:26;;;;;;;7.13;4.65;;;;;;;;;;5026213;28;20056;-84
2021/09/26 11:44:55;;;;;;;5.80;4.00;;;;;;;;;;5026169;28;20069;-83
2021/09/26 11:47:23;;;;;;;7.10;4.45;;;;;;;;;;5027994;28;20059;-84
2021/09/26 11:49:51;;;;;;;6.75;4.22;;;;;;;;;;5024108;28;20056;-82
2021/09/26 11:52:21;;;;;;;7.25;4.25;;;;;;;;;;5008721;28;20045;-83
2021/09/26 11:54:50;;;;;;;6.00;4.32;;;;;;;;;;5022390;28;20048;-82
2021/09/26 11:57:31;;;;;;;5.85;4.57;;;;;;;;;;5024613;28;20045;-83
2021/09/26 11:59:58;;;;;;;6.35;4.80;;;;;;;;;;5027229;28;20171;-83
2021/09/26 12:02:32;;;;;;;9.05;5.07;;;;;;;;;;5005243;28;20239;-82
2021/09/26 12:05:00;;;;;;;12.25;6.03;;;;;;;;;;5024908;28;20079;-84
2021/09/26 12:07:31;;;;;;;6.65;4.88;;;;;;;;;;5028200;28;20060;-82
2021/09/26 12:09:59;;;;;;;7.75;4.78;;;;;;;;;;5026729;28;20244;-83
2021/09/26 12:12:29;;;;;;;9.88;4.68;;;;;;;;;;5024735;28;20049;-83
2021/09/26 12:15:07;;;;;;;9.02;4.38;;;;;;;;;;5024588;28;20049;-83
2021/09/26 12:17:40;;;;;;;6.03;4.00;;;;;;;;;;5024887;28;20265;-84
2021/09/26 12:20:09;;;;;;;8.15;4.13;;;;;;;;;;5029282;28;20049;-84
2021/09/26 12:22:37;;;;;;;6.22;3.33;;;;;;;;;;5041659;28;20117;-83
2021/09/26 12:25:24;;;;;;;5.55;3.67;;;;;;;;;;5036334;28;20041;-83
2021/09/26 12:27:56;;;;;;;4.80;4.00;;;;;;;;;;5042494;28;20065;-84
2021/09/26 12:30:30;;;;;;;13.18;4.40;;;;;;;;;;5025457;28;20046;-83
2021/09/26 12:33:02;;;;;;;8.75;3.63;;;;;;;;;;5025160;28;20127;-83
2021/09/26 12:35:32;;;;;;;6.75;4.15;;;;;;;;;;5024465;28;20077;-83
2021/09/26 12:38:02;;;;;;;4.65;3.50;;;;;;;;;;5023102;28;20050;-83
2021/09/26 12:40:31;;;;;;;7.60;3.95;;;;;;;;;;5018606;28;20041;-83
2021/09/26 12:42:59;;;;;;;6.95;3.95;;;;;;;;;;5020205;28;20059;-83
2021/09/26 12:45:26;;;;;;;5.40;3.60;;;;;;;;;;5023045;28;20269;-83
2021/09/26 12:47:55;;;;;;;7.45;4.30;;;;;;;;;;5021227;28;20397;-83
2021/09/26 12:50:24;;;;;;;7.07;4.10;;;;;;;;;;5024066;28;20046;-83
2021/09/26 12:52:56;;;;;;;8.45;4.03;;;;;;;;;;5028127;28;20436;-83
2021/09/26 12:55:25;;;;;;;5.50;3.53;;;;;;;;;;5030541;28;20112;-84
2021/09/26 12:57:54;;;;;;;5.47;3.97;;;;;;;;;;5027570;28;20129;-83
2021/09/26 13:00:20;;;;;;;7.65;3.90;;;;;;;;;;5037429;28;20253;-84
2021/09/26 13:02:52;;;;;;;15.57;4.75;;;;;;;;;;5025190;28;20201;-84
2021/09/26 13:05:34;;;;;;;8.32;4.15;;;;;;;;;;5023861;28;20041;-84
2021/09/26 13:08:07;;;;;;;6.88;4.22;;;;;;;;;;5026817;28;20379;-83
2021/09/26 13:10:35;;;;;;;6.40;4.22;;;;;;;;;;5029435;28;20421;-83
2021/09/26 13:13:18;;;;;;;7.70;4.25;;;;;;;;;;5029228;28;20209;-83
2021/09/26 13:15:52;;;;;;;7.80;4.32;;;;;;;;;;5030643;28;20153;-83
2021/09/26 13:18:28;;;;;;;4.85;3.70;;;;;;;;;;5027223;28;20069;-83
2021/09/26 13:21:09;;;;;;;5.95;4.75;;;;;;;;;;5030365;28;20134;-84
2021/09/26 13:23:44;;;;;;;5.65;4.20;;;;;;;;;;5030049;28;20073;-84
2021/09/26 13:26:15;;;;;;;8.35;4.00;;;;;;;;;;5029875;28;20148;-83
2021/09/26 13:29:04;;;;;;;5.97;3.78;;;;;;;;;;5025504;28;20214;-83
2021/09/26 13:31:35;;;;;;;8.07;4.00;;;;;;;;;;5014613;28;20126;-83
2021/09/26 13:34:08;;;;;;;11.02;4.53;;;;;;;;;;5008546;28;20080;-84
2021/09/26 13:36:58;;;;;;;6.60;4.00;;;;;;;;;;5025295;28;20150;-83
2021/09/26 13:39:41;;;;;;;7.05;4.45;;;;;;;;;;5026357;28;20071;-83
2021/09/26 13:42:34;;;;;;;7.22;4.38;;;;;;;;;;5019828;28;20050;-83
2021/09/26 13:45:04;;;;;;;8.30;4.75;;;;;;;;;;5024187;28;20211;-83
2021/09/26 13:47:31;;;;;;;7.22;4.28;;;;;;;;;;5027336;28;20391;-83
2021/09/26 13:50:04;;;;;;;9.15;4.10;;;;;;;;;;5026956;28;20080;-83
2021/09/26 13:52:34;;;;;;;8.00;4.50;;;;;;;;;;5029565;28;20045;-84
2021/09/26 13:55:00;;;;;;;8.57;4.35;;;;;;;;;;5028787;28;20042;-82
2021/09/26 13:57:29;;;;;;;6.78;4.30;;;;;;;;;;5029390;28;20049;-83
2021/09/26 13:59:57;;;;;;;8.85;4.70;;;;;;;;;;5038923;28;20059;-83
2021/09/26 14:02:24;;;;;;;6.72;4.60;;;;;;;;;;5041073;28;20069;-84
2021/09/26 14:04:53;;;;;;;5.50;4.40;;;;;;;;;;5029273;28;20056;-83
2021/09/26 14:07:20;;;;;;;8.25;4.28;;;;;;;;;;5027271;28;20069;-83
2021/09/26 14:09:48;;;;;;;8.55;4.43;;;;;;;;;;5028243;28;20355;-83
2021/09/26 14:12:15;;;;;;;7.03;4.20;;;;;;;;;;5008226;28;20081;-83
2021/09/26 14:14:44;;;;;;;6.70;4.65;;;;;;;;;;5013968;28;20084;-83
2021/09/26 14:17:12;;;;;;;6.38;3.72;;;;;;;;;;5014509;28;20054;-84
2021/09/26 14:19:39;;;;;;;5.93;4.35;;;;;;;;;;5026099;28;20075;-85
2021/09/26 14:22:07;;;;;;;4.65;4.07;;;;;;;;;;5027671;28;20109;-84
2021/09/26 14:25:11;;;;;;;8.23;3.97;;;;;;;;;;5034452;28;20042;-84
2021/09/26 14:28:07;;;;;;;7.88;3.97;;;;;;;;;;5043480;28;20097;-83
2021/09/26 14:30:38;;;;;;;6.80;4.13;;;;;;;;;;5060885;28;20186;-83
2021/09/26 14:33:05;;;;;;;9.93;4.18;;;;;;;;;;5027444;28;20427;-82
2021/09/26 14:35:32;;;;;;;6.18;4.15;;;;;;;;;;5027684;28;20072;-82
2021/09/26 14:38:02;;;;;;;6.75;3.95;;;;;;;;;;5037123;28;20037;-84
2021/09/26 14:40:29;;;;;;;7.68;3.97;;;;;;;;;;5055072;28;20061;-83
2021/09/26 14:42:56;;;;;;;8.23;4.90;;;;;;;;;;5025673;28;20093;-84
2021/09/26 14:45:26;;;;;;;7.20;4.43;;;;;;;;;;5025857;28;20048;-83
2021/09/26 14:47:52;;;;;;;6.53;4.45;;;;;;;;;;5031385;28;20196;-83